createdAt,value
2018-10-01T00:00:45.226Z,11.45
2018-10-01T00:03:15.564Z,11.39
2018-10-01T00:05:46.028Z,11.36
2018-10-01T00:08:16.724Z,11.30
2018-10-01T00:10:47.222Z,11.26
2018-10-01T00:13:18.511Z,11.27
2018-10-01T00:15:49.015Z,11.27
2018-10-01T00:18:20.254Z,11.29
2018-10-01T00:20:55.786Z,11.31
2018-10-01T00:23:26.125Z,11.32
2018-10-01T00:25:56.704Z,11.31
2018-10-01T00:28:27.090Z,11.24
2018-10-01T00:30:57.556Z,11.21
2018-10-01T00:33:27.965Z,11.15
2018-10-01T00:35:58.425Z,11.07
2018-10-01T00:38:28.957Z,11.00
2018-10-01T00:40:59.597Z,10.97
2018-10-01T00:43:30.211Z,10.97
2018-10-01T00:46:00.682Z,10.99
2018-10-01T00:48:31.130Z,11.15
2018-10-01T00:51:01.593Z,11.23
2018-10-01T00:53:32.170Z,11.37
2018-10-01T00:56:02.571Z,11.36
2018-10-01T00:58:33.079Z,11.47
2018-10-01T01:01:03.520Z,11.55
2018-10-01T01:03:33.985Z,11.51
2018-10-01T01:06:04.754Z,11.59
2018-10-01T01:08:35.106Z,11.53
2018-10-01T01:11:06.620Z,11.40
2018-10-01T01:13:37.198Z,11.21
2018-10-01T01:16:07.597Z,11.07
2018-10-01T01:18:38.127Z,10.95
2018-10-01T01:21:08.800Z,10.89
2018-10-01T01:23:39.221Z,11.12
2018-10-01T01:26:09.715Z,11.07
2018-10-01T01:28:40.144Z,11.04
2018-10-01T01:31:11.257Z,10.97
2018-10-01T01:33:41.769Z,10.94
2018-10-01T01:36:12.099Z,10.94
2018-10-01T01:38:43.016Z,10.89
2018-10-01T01:41:13.416Z,10.90
2018-10-01T01:43:43.899Z,10.82
2018-10-01T01:46:14.431Z,10.71
2018-10-01T01:48:44.902Z,10.71
2018-10-01T01:51:15.386Z,10.84
2018-10-01T01:53:45.758Z,10.90
2018-10-01T01:56:16.165Z,10.87
2018-10-01T01:58:46.753Z,10.78
2018-10-01T02:01:17.184Z,10.70
2018-10-01T02:03:47.625Z,10.69
2018-10-01T02:06:18.126Z,10.70
2018-10-01T02:08:48.572Z,10.72
2018-10-01T02:11:19.073Z,10.70
2018-10-01T02:13:49.491Z,10.76
2018-10-01T02:16:20.033Z,10.87
2018-10-01T02:18:50.516Z,10.93
2018-10-01T02:21:20.951Z,10.94
2018-10-01T02:23:51.200Z,10.98
2018-10-01T02:26:21.626Z,11.03
2018-10-01T02:28:52.201Z,11.07
2018-10-01T02:31:22.738Z,11.13
2018-10-01T02:33:54.427Z,11.26
2018-10-01T02:36:24.949Z,11.50
2018-10-01T02:38:55.680Z,11.98
2018-10-01T02:41:26.213Z,12.24
2018-10-01T02:43:57.055Z,12.54
2018-10-01T02:46:27.629Z,12.72
2018-10-01T02:48:58.182Z,12.86
2018-10-01T02:51:28.873Z,12.97
2018-10-01T02:54:04.334Z,13.00
2018-10-01T02:56:34.781Z,13.17
2018-10-01T02:59:05.238Z,13.10
2018-10-01T03:01:35.609Z,13.20
2018-10-01T03:04:06.851Z,13.12
2018-10-01T03:06:37.212Z,13.18
2018-10-01T03:09:13.508Z,13.14
2018-10-01T03:11:43.977Z,13.15
2018-10-01T03:14:14.490Z,13.18
2018-10-01T03:16:44.942Z,13.24
2018-10-01T03:19:15.576Z,13.26
2018-10-01T03:21:46.116Z,13.30
2018-10-01T03:24:16.798Z,13.45
2018-10-01T03:26:47.205Z,13.46
2018-10-01T03:29:17.572Z,13.51
2018-10-01T03:31:48.054Z,13.49
2018-10-01T03:34:19.415Z,13.49
2018-10-01T03:36:49.906Z,13.50
2018-10-01T03:39:20.272Z,13.55
2018-10-01T03:41:50.669Z,13.63
2018-10-01T03:44:21.151Z,13.66
2018-10-01T03:46:51.758Z,13.44
2018-10-01T03:49:22.778Z,13.41
2018-10-01T03:51:53.224Z,13.46
2018-10-01T03:54:23.712Z,13.69
2018-10-01T03:56:54.183Z,13.86
2018-10-01T03:59:24.655Z,13.90
2018-10-01T04:01:55.374Z,13.86
2018-10-01T04:04:26.006Z,13.81
2018-10-01T04:06:56.539Z,13.80
2018-10-01T04:09:28.044Z,13.82
2018-10-01T04:11:58.572Z,13.83
2018-10-01T04:14:29.211Z,13.84
2018-10-01T04:17:00.037Z,13.83
2018-10-01T04:19:30.430Z,13.89
2018-10-01T04:22:01.024Z,13.83
2018-10-01T04:24:31.496Z,13.81
2018-10-01T04:27:01.865Z,13.84
2018-10-01T04:29:32.290Z,13.89
2018-10-01T04:32:02.910Z,13.90
2018-10-01T04:34:33.455Z,13.91
2018-10-01T04:37:03.925Z,13.89
2018-10-01T04:39:34.484Z,13.82
2018-10-01T04:42:05.583Z,13.77
2018-10-01T04:44:36.116Z,13.81
2018-10-01T04:47:06.687Z,13.74
2018-10-01T04:49:37.081Z,13.77
2018-10-01T04:52:07.458Z,13.80
2018-10-01T04:54:37.947Z,13.70
2018-10-01T04:57:08.723Z,13.78
2018-10-01T04:59:39.174Z,13.87
2018-10-01T05:02:10.214Z,13.94
2018-10-01T05:04:40.735Z,13.94
2018-10-01T05:07:11.287Z,13.83
2018-10-01T05:09:41.604Z,13.76
2018-10-01T05:12:12.466Z,13.73
2018-10-01T05:14:43.047Z,13.69
2018-10-01T05:17:13.595Z,13.66
2018-10-01T05:19:44.039Z,13.63
2018-10-01T05:22:14.700Z,13.59
2018-10-01T05:24:45.170Z,13.48
2018-10-01T05:27:15.632Z,13.55
2018-10-01T05:29:46.051Z,13.65
2018-10-01T05:32:16.663Z,13.64
2018-10-01T05:34:47.179Z,13.75
2018-10-01T05:37:17.553Z,13.78
2018-10-01T05:39:48.037Z,13.89
2018-10-01T05:42:18.490Z,13.98
2018-10-01T05:44:49.009Z,14.14
2018-10-01T05:47:19.514Z,14.31
2018-10-01T05:49:50.122Z,14.31
2018-10-01T05:52:20.852Z,14.28
2018-10-01T05:54:51.228Z,14.26
2018-10-01T05:57:21.700Z,14.21
2018-10-01T05:59:52.227Z,14.29
2018-10-01T06:02:56.797Z,14.35
2018-10-01T06:05:27.224Z,14.83
2018-10-01T06:07:57.750Z,15.81
2018-10-01T06:10:28.282Z,16.31
2018-10-01T06:12:58.734Z,17.39
2018-10-01T06:15:29.337Z,18.30
2018-10-01T06:17:59.866Z,18.54
2018-10-01T06:20:30.348Z,18.54
2018-10-01T06:23:01.026Z,18.88
2018-10-01T06:25:32.037Z,18.52
2018-10-01T06:28:03.367Z,18.09
2018-10-01T06:30:33.896Z,17.77
2018-10-01T06:33:04.650Z,17.64
2018-10-01T06:35:35.611Z,17.53
2018-10-01T06:38:06.442Z,17.82
2018-10-01T06:40:36.881Z,18.97
2018-10-01T06:43:07.630Z,18.87
2018-10-01T06:45:37.977Z,19.33
2018-10-01T06:48:08.737Z,20.07
2018-10-01T06:50:39.396Z,21.54
2018-10-01T06:53:11.023Z,22.51
2018-10-01T06:55:41.619Z,23.00
2018-10-01T06:58:13.792Z,22.92
2018-10-01T07:00:44.293Z,21.79
2018-10-01T07:03:15.717Z,22.42
2018-10-01T07:05:47.003Z,23.13
2018-10-01T07:08:17.547Z,24.07
2018-10-01T07:10:48.157Z,24.70
2018-10-01T07:13:18.551Z,25.62
2018-10-01T07:15:49.007Z,24.99
2018-10-01T07:18:19.473Z,25.96
2018-10-01T07:20:50.430Z,26.30
2018-10-01T07:23:21.008Z,26.72
2018-10-01T07:25:51.415Z,27.02
2018-10-01T07:28:22.103Z,26.42
2018-10-01T07:30:54.366Z,27.47
2018-10-01T07:33:25.108Z,26.18
2018-10-01T07:35:55.663Z,24.77
2018-10-01T07:38:26.203Z,23.51
2018-10-01T07:40:57.401Z,23.13
2018-10-01T07:43:28.225Z,22.66
2018-10-01T07:45:58.947Z,22.31
2018-10-01T07:48:29.734Z,22.04
2018-10-01T07:51:00.521Z,21.77
2018-10-01T07:53:31.229Z,20.38
2018-10-01T07:56:02.471Z,20.68
2018-10-01T07:58:33.654Z,20.74
2018-10-01T08:01:04.532Z,21.00
2018-10-01T08:03:35.233Z,21.00
2018-10-01T08:06:05.961Z,21.65
2018-10-01T08:08:36.613Z,23.33
2018-10-01T08:11:07.440Z,24.59
2018-10-01T08:13:38.449Z,25.26
2018-10-01T08:16:09.284Z,25.65
2018-10-01T08:18:40.082Z,23.69
2018-10-01T08:21:10.699Z,23.09
2018-10-01T08:23:41.549Z,22.83
2018-10-01T08:26:11.940Z,22.41
2018-10-01T08:28:43.648Z,23.24
2018-10-01T08:31:14.317Z,23.69
2018-10-01T08:33:44.831Z,25.84
2018-10-01T08:36:16.060Z,25.06
2018-10-01T08:38:46.913Z,25.11
2018-10-01T08:41:17.384Z,23.79
2018-10-01T08:43:47.939Z,22.66
2018-10-01T08:46:19.077Z,23.06
2018-10-01T08:48:54.400Z,23.07
2018-10-01T08:51:32.339Z,22.03
2018-10-01T08:54:07.663Z,22.24
2018-10-01T08:56:38.634Z,22.37
2018-10-01T08:59:09.443Z,21.95
2018-10-01T09:01:40.238Z,22.14
2018-10-01T09:04:10.879Z,21.99
2018-10-01T09:06:41.494Z,22.15
2018-10-01T09:09:12.887Z,22.18
2018-10-01T09:11:43.512Z,21.93
2018-10-01T09:14:14.132Z,21.86
2018-10-01T09:16:44.724Z,22.23
2018-10-01T09:19:15.151Z,21.94
2018-10-01T09:21:45.726Z,21.59
2018-10-01T09:24:17.020Z,22.02
2018-10-01T09:26:47.746Z,22.26
2018-10-01T09:29:19.444Z,22.41
2018-10-01T09:31:53.000Z,22.54
2018-10-01T09:34:27.854Z,22.32
2018-10-01T09:36:58.690Z,21.80
2018-10-01T09:39:29.225Z,20.86
2018-10-01T09:42:01.107Z,20.22
2018-10-01T09:44:31.785Z,19.63
2018-10-01T09:47:02.359Z,18.65
2018-10-01T09:49:33.216Z,17.81
2018-10-01T09:52:03.979Z,17.24
2018-10-01T09:54:34.759Z,16.95
2018-10-01T09:57:06.846Z,16.76
2018-10-01T09:59:37.831Z,16.50
2018-10-01T10:02:09.179Z,16.25
2018-10-01T10:04:40.127Z,16.19
2018-10-01T10:07:10.997Z,16.05
2018-10-01T10:09:41.634Z,15.96
2018-10-01T10:12:12.347Z,15.87
2018-10-01T10:14:42.855Z,15.76
2018-10-01T10:17:13.775Z,15.72
2018-10-01T10:19:44.764Z,15.82
2018-10-01T10:22:16.437Z,15.82
2018-10-01T10:24:47.114Z,15.96
2018-10-01T10:27:17.900Z,16.12
2018-10-01T10:29:48.571Z,16.32
2018-10-01T10:32:19.545Z,16.51
2018-10-01T10:34:50.679Z,16.56
2018-10-01T10:37:21.168Z,16.61
2018-10-01T10:39:51.654Z,16.68
2018-10-01T10:42:22.827Z,16.74
2018-10-01T10:44:53.457Z,16.53
2018-10-01T10:47:25.492Z,16.39
2018-10-01T10:49:56.574Z,16.20
2018-10-01T10:52:27.414Z,16.22
2018-10-01T10:54:58.198Z,16.29
2018-10-01T10:57:29.014Z,16.29
2018-10-01T10:59:59.685Z,16.34
2018-10-01T11:02:31.097Z,16.32
2018-10-01T11:05:01.729Z,16.20
2018-10-01T11:07:33.341Z,16.15
2018-10-01T11:10:03.775Z,16.21
2018-10-01T11:12:34.882Z,16.25
2018-10-01T11:15:05.743Z,16.29
2018-10-01T11:17:36.235Z,16.31
2018-10-01T11:20:07.374Z,16.64
2018-10-01T11:22:38.037Z,17.57
2018-10-01T11:25:08.803Z,19.76
2018-10-01T11:27:39.597Z,20.87
2018-10-01T11:30:10.421Z,21.30
2018-10-01T11:32:41.249Z,21.19
2018-10-01T11:35:11.968Z,20.90
2018-10-01T11:37:42.472Z,20.82
2018-10-01T11:40:13.272Z,21.26
2018-10-01T11:42:44.022Z,21.08
2018-10-01T11:45:14.846Z,22.27
2018-10-01T11:47:45.963Z,22.07
2018-10-01T11:50:16.610Z,21.75
2018-10-01T11:52:47.231Z,22.27
2018-10-01T11:55:17.939Z,23.34
2018-10-01T11:57:49.064Z,24.22
2018-10-01T12:00:20.990Z,23.82
2018-10-01T12:02:51.625Z,22.61
2018-10-01T12:05:22.315Z,21.74
2018-10-01T12:07:52.947Z,21.13
2018-10-01T12:10:23.598Z,20.70
2018-10-01T12:12:54.454Z,20.32
2018-10-01T12:15:25.168Z,20.05
2018-10-01T12:17:55.730Z,19.84
2018-10-01T12:20:26.268Z,19.64
2018-10-01T12:22:56.746Z,19.46
2018-10-01T12:25:27.281Z,19.20
2018-10-01T12:27:58.040Z,18.62
2018-10-01T12:30:29.062Z,18.05
2018-10-01T12:33:00.864Z,17.83
2018-10-01T12:35:31.414Z,17.79
2018-10-01T12:38:02.060Z,17.47
2018-10-01T12:40:33.160Z,17.28
2018-10-01T12:43:07.248Z,17.06
2018-10-01T12:45:38.601Z,16.91
2018-10-01T12:48:10.273Z,16.66
2018-10-01T12:50:43.263Z,16.42
2018-10-01T12:53:14.054Z,16.25
2018-10-01T12:55:44.789Z,16.10
2018-10-01T12:58:15.812Z,15.89
2018-10-01T13:00:47.534Z,16.19
2018-10-01T13:03:21.274Z,16.42
2018-10-01T13:05:53.148Z,16.39
2018-10-01T13:08:24.949Z,16.41
2018-10-01T13:10:56.038Z,16.73
2018-10-01T13:13:26.887Z,17.52
2018-10-01T13:15:58.146Z,17.85
2018-10-01T13:18:28.827Z,18.69
2018-10-01T13:21:00.283Z,19.46
2018-10-01T13:23:31.170Z,20.24
2018-10-01T13:26:02.771Z,20.90
2018-10-01T13:28:33.718Z,21.54
2018-10-01T13:31:04.559Z,22.22
2018-10-01T13:33:35.306Z,22.61
2018-10-01T13:36:06.777Z,22.62
2018-10-01T13:38:38.392Z,22.23
2018-10-01T13:41:09.566Z,21.89
2018-10-01T13:43:40.607Z,21.51
2018-10-01T13:46:11.510Z,21.10
2018-10-01T13:48:42.361Z,21.53
2018-10-01T13:51:13.739Z,21.87
2018-10-01T13:53:44.398Z,22.15
2018-10-01T13:56:15.517Z,22.81
2018-10-01T13:58:46.143Z,22.71
2018-10-01T14:01:16.650Z,23.15
2018-10-01T14:03:47.149Z,23.21
2018-10-01T14:06:17.975Z,23.88
2018-10-01T14:08:48.487Z,23.91
2018-10-01T14:11:19.168Z,24.07
2018-10-01T14:13:49.827Z,24.43
2018-10-01T14:16:20.507Z,24.66
2018-10-01T14:18:52.006Z,24.47
2018-10-01T14:21:22.626Z,24.56
2018-10-01T14:23:53.518Z,24.91
2018-10-01T14:26:25.102Z,24.70
2018-10-01T14:28:55.736Z,24.84
2018-10-01T14:31:26.688Z,23.94
2018-10-01T14:33:57.418Z,23.86
2018-10-01T14:36:28.077Z,23.97
2018-10-01T14:38:58.649Z,24.31
2018-10-01T14:41:29.268Z,24.28
2018-10-01T14:43:59.889Z,24.21
2018-10-01T14:46:30.504Z,24.53
2018-10-01T14:49:00.955Z,24.76
2018-10-01T14:51:31.433Z,24.93
2018-10-01T14:54:02.077Z,25.09
2018-10-01T14:56:32.697Z,25.01
2018-10-01T14:59:03.781Z,24.82
2018-10-01T15:01:34.916Z,24.70
2018-10-01T15:04:05.628Z,24.51
2018-10-01T15:06:36.266Z,23.89
2018-10-01T15:09:11.438Z,23.26
2018-10-01T15:11:42.307Z,22.99
2018-10-01T15:14:13.556Z,22.73
2018-10-01T15:16:45.041Z,22.44
2018-10-01T15:19:17.471Z,22.78
2018-10-01T15:21:48.131Z,22.40
2018-10-01T15:24:18.988Z,22.73
2018-10-01T15:26:49.651Z,22.65
2018-10-01T15:29:20.484Z,22.56
2018-10-01T15:31:51.403Z,22.62
2018-10-01T15:34:21.965Z,22.54
2018-10-01T15:36:52.579Z,22.35
2018-10-01T15:39:23.243Z,22.10
2018-10-01T15:41:54.221Z,22.10
2018-10-01T15:44:24.866Z,22.18
2018-10-01T15:46:55.595Z,22.10
2018-10-01T15:49:26.237Z,22.16
2018-10-01T15:51:57.182Z,22.37
2018-10-01T15:54:28.151Z,22.39
2018-10-01T15:57:01.752Z,22.23
2018-10-01T15:59:32.833Z,22.20
2018-10-01T16:02:06.304Z,22.30
2018-10-01T16:04:37.373Z,22.12
2018-10-01T16:07:09.626Z,21.72
2018-10-01T16:09:41.890Z,21.32
2018-10-01T16:12:12.798Z,21.19
2018-10-01T16:14:43.955Z,20.77
2018-10-01T16:17:14.795Z,20.51
2018-10-01T16:19:45.849Z,20.03
2018-10-01T16:22:16.241Z,19.75
2018-10-01T16:24:46.689Z,19.46
2018-10-01T16:27:17.314Z,19.27
2018-10-01T16:29:47.956Z,19.22
2018-10-01T16:32:18.700Z,19.12
2018-10-01T16:34:49.349Z,18.92
2018-10-01T16:37:20.119Z,18.76
2018-10-01T16:39:51.026Z,18.62
2018-10-01T16:42:22.610Z,18.53
2018-10-01T16:44:53.463Z,18.31
2018-10-01T16:47:24.146Z,18.12
2018-10-01T16:49:56.965Z,18.01
2018-10-01T16:52:28.662Z,17.70
2018-10-01T16:54:59.292Z,17.48
2018-10-01T16:57:30.195Z,17.34
2018-10-01T17:00:00.904Z,17.17
2018-10-01T17:02:31.746Z,17.05
2018-10-01T17:05:02.765Z,16.92
2018-10-01T17:07:33.497Z,16.80
2018-10-01T17:10:04.475Z,16.70
2018-10-01T17:12:35.262Z,16.56
2018-10-01T17:15:06.240Z,16.50
2018-10-01T17:17:37.356Z,16.40
2018-10-01T17:20:09.026Z,16.37
2018-10-01T17:22:40.368Z,16.23
2018-10-01T17:25:12.456Z,16.21
2018-10-01T17:27:44.921Z,16.17
2018-10-01T17:30:16.565Z,16.16
2018-10-01T17:32:47.344Z,16.16
2018-10-01T17:35:18.400Z,16.18
2018-10-01T17:37:49.774Z,16.18
2018-10-01T17:40:20.610Z,16.15
2018-10-01T17:42:51.230Z,16.18
2018-10-01T17:45:24.004Z,16.21
2018-10-01T17:47:59.889Z,16.18
2018-10-01T17:50:31.173Z,16.12
2018-10-01T17:53:02.406Z,16.03
2018-10-01T17:55:35.437Z,15.96
2018-10-01T17:58:06.740Z,15.88
2018-10-01T18:00:40.246Z,15.80
2018-10-01T18:03:11.351Z,15.75
2018-10-01T18:05:42.537Z,15.71
2018-10-01T18:08:13.928Z,15.72
2018-10-01T18:10:45.531Z,15.74
2018-10-01T18:13:17.012Z,15.78
2018-10-01T18:15:48.030Z,15.84
2018-10-01T18:18:19.103Z,15.92
2018-10-01T18:20:50.283Z,15.93
2018-10-01T18:23:21.460Z,15.94
2018-10-01T18:25:52.217Z,15.95
2018-10-01T18:28:23.053Z,15.97
2018-10-01T18:30:57.825Z,16.01
2018-10-01T18:33:28.439Z,16.03
2018-10-01T18:36:03.234Z,16.06
2018-10-01T18:38:35.070Z,16.08
2018-10-01T18:41:05.866Z,16.06
2018-10-01T18:43:36.884Z,16.03
2018-10-01T18:46:07.618Z,16.01
2018-10-01T18:48:38.479Z,16.02
2018-10-01T18:51:10.034Z,16.00
2018-10-01T18:53:41.458Z,15.99
2018-10-01T18:56:13.449Z,15.97
2018-10-01T18:58:44.388Z,15.91
2018-10-01T19:01:16.617Z,15.83
2018-10-01T19:03:52.177Z,15.76
2018-10-01T19:06:23.532Z,15.83
2018-10-01T19:08:54.478Z,15.87
2018-10-01T19:11:25.471Z,15.86
2018-10-01T19:13:56.427Z,15.88
2018-10-01T19:16:27.792Z,15.83
2018-10-01T19:18:58.897Z,15.74
2018-10-01T19:21:30.313Z,15.78
2018-10-01T19:24:02.169Z,15.82
2018-10-01T19:26:36.601Z,15.82
2018-10-01T19:29:07.399Z,15.83
2018-10-01T19:31:41.176Z,15.83
2018-10-01T19:34:12.257Z,15.85
2018-10-01T19:36:44.172Z,15.88
2018-10-01T19:39:15.107Z,15.75
2018-10-01T19:41:53.298Z,15.65
2018-10-01T19:44:25.244Z,15.45
2018-10-01T19:47:00.104Z,15.37
2018-10-01T19:49:32.802Z,15.33
2018-10-01T19:52:05.160Z,15.23
2018-10-01T19:54:38.322Z,15.26
2018-10-01T19:57:11.411Z,15.26
2018-10-01T19:59:46.883Z,15.21
2018-10-01T20:02:19.897Z,15.28
2018-10-01T20:04:54.731Z,15.39
2018-10-01T20:07:28.106Z,15.40
2018-10-01T20:09:59.584Z,15.45
2018-10-01T20:12:32.166Z,15.43
2018-10-01T20:15:05.763Z,15.39
2018-10-01T20:17:39.308Z,15.35
2018-10-01T20:20:10.497Z,15.31
2018-10-01T20:22:46.461Z,15.29
2018-10-01T20:25:19.692Z,15.27
2018-10-01T20:27:54.595Z,15.26
2018-10-01T20:30:28.795Z,15.24
2018-10-01T20:33:00.636Z,15.20
2018-10-01T20:35:36.129Z,15.16
2018-10-01T20:38:12.524Z,15.10
2018-10-01T20:40:48.642Z,15.10
2018-10-01T20:43:25.942Z,15.04
2018-10-01T20:46:04.506Z,15.01
2018-10-01T20:48:39.274Z,14.98
2018-10-01T20:51:10.001Z,14.98
2018-10-01T20:53:41.127Z,14.95
2018-10-01T20:56:12.659Z,14.92
2018-10-01T20:58:45.392Z,14.84
2018-10-01T21:01:19.356Z,14.75
2018-10-01T21:03:52.373Z,14.68
2018-10-01T21:06:25.633Z,14.60
2018-10-01T21:08:58.936Z,14.52
2018-10-01T21:11:31.716Z,14.45
2018-10-01T21:14:07.071Z,14.44
2018-10-01T21:16:38.396Z,14.41
2018-10-01T21:19:11.752Z,14.41
2018-10-01T21:21:44.136Z,14.31
2018-10-01T21:24:17.125Z,14.29
2018-10-01T21:26:51.782Z,14.20
2018-10-01T21:29:22.961Z,14.03
2018-10-01T21:31:54.357Z,13.97
2018-10-01T21:34:29.093Z,13.84
2018-10-01T21:37:00.993Z,13.77
2018-10-01T21:39:55.842Z,13.68
2018-10-01T21:42:27.313Z,13.65
2018-10-01T21:45:00.312Z,13.72
2018-10-01T21:47:34.031Z,13.65
2018-10-01T21:50:06.153Z,13.59
2018-10-01T21:52:38.354Z,13.54
2018-10-01T21:55:10.670Z,13.52
2018-10-01T21:57:46.148Z,13.48
2018-10-01T22:00:17.331Z,13.43
2018-10-01T22:02:49.338Z,13.40
2018-10-01T22:05:25.007Z,13.41
2018-10-01T22:07:57.860Z,13.50
2018-10-01T22:10:28.921Z,13.38
2018-10-01T22:13:00.586Z,13.23
2018-10-01T22:15:36.259Z,13.17
2018-10-01T22:18:06.774Z,13.05
2018-10-01T22:20:37.749Z,12.98
2018-10-01T22:23:08.962Z,12.91
2018-10-01T22:25:39.693Z,12.89
2018-10-01T22:28:11.147Z,12.86
2018-10-01T22:30:42.838Z,12.83
2018-10-01T22:33:13.745Z,12.89
2018-10-01T22:35:44.350Z,12.86
2018-10-01T22:38:15.025Z,12.86
2018-10-01T22:40:46.146Z,12.82
2018-10-01T22:43:16.728Z,12.78
2018-10-01T22:45:47.365Z,12.76
2018-10-01T22:48:17.877Z,12.70
2018-10-01T22:50:48.451Z,12.65
2018-10-01T22:53:18.935Z,12.62
2018-10-01T22:55:49.506Z,12.63
2018-10-01T22:58:20.101Z,12.61
2018-10-01T23:00:50.675Z,12.56
2018-10-01T23:03:21.349Z,12.53
2018-10-01T23:05:51.815Z,12.45
2018-10-01T23:08:22.193Z,12.40
2018-10-01T23:10:52.772Z,12.39
2018-10-01T23:13:23.282Z,12.34
2018-10-01T23:15:53.856Z,12.32
2018-10-01T23:18:24.304Z,12.29
2018-10-01T23:20:54.882Z,12.28
2018-10-01T23:23:25.444Z,12.22
2018-10-01T23:25:55.931Z,12.16
2018-10-01T23:28:26.449Z,12.14
2018-10-01T23:30:57.016Z,12.16
2018-10-01T23:33:27.410Z,12.05
2018-10-01T23:35:58.028Z,11.97
2018-10-01T23:38:28.468Z,11.90
2018-10-01T23:40:59.046Z,11.88
2018-10-01T23:43:30.575Z,11.88
2018-10-01T23:46:01.013Z,11.92
2018-10-01T23:48:31.583Z,11.95
2018-10-01T23:51:02.657Z,12.01
2018-10-01T23:53:33.226Z,12.05
2018-10-01T23:56:04.351Z,12.13
2018-10-01T23:58:35.006Z,12.23
